createdAt,value
2019-01-15T00:03:14.138Z,20.03
2019-01-15T00:08:19.960Z,17.23
2019-01-15T00:13:24.503Z,19.20
2019-01-15T00:18:29.092Z,23.25
2019-01-15T00:23:33.649Z,22.67
2019-01-15T00:28:38.138Z,17.00
2019-01-15T00:33:42.770Z,14.37
2019-01-15T00:38:47.329Z,16.77
2019-01-15T00:43:51.859Z,11.53
2019-01-15T00:48:56.441Z,15.03
2019-01-15T00:54:01.026Z,16.83
2019-01-15T00:59:05.584Z,18.20
2019-01-15T01:04:10.179Z,21.20
2019-01-15T01:09:14.749Z,21.53
2019-01-15T01:14:19.350Z,13.83
2019-01-15T01:19:23.934Z,16.90
2019-01-15T01:24:28.477Z,17.20
2019-01-15T01:29:33.001Z,15.40
2019-01-15T01:34:37.555Z,17.40
2019-01-15T01:39:42.123Z,13.43
2019-01-15T01:44:46.632Z,18.02
2019-01-15T01:49:51.203Z,19.07
2019-01-15T01:54:55.793Z,17.17
2019-01-15T02:00:00.309Z,15.70
2019-01-15T02:05:05.532Z,16.07
2019-01-15T02:10:12.051Z,12.67
2019-01-15T02:15:18.778Z,17.67
2019-01-15T02:20:23.492Z,14.97
2019-01-15T02:25:28.008Z,12.53
2019-01-15T02:30:32.573Z,12.93
2019-01-15T02:35:37.210Z,14.17
2019-01-15T02:40:41.789Z,12.53
2019-01-15T02:45:46.391Z,13.23
2019-01-15T02:50:51.347Z,13.63
2019-01-15T02:55:55.930Z,10.17
2019-01-15T03:01:00.551Z,12.07
2019-01-15T03:06:05.124Z,13.40
2019-01-15T03:11:09.685Z,12.83
2019-01-15T03:16:14.169Z,8.33
2019-01-15T03:21:18.676Z,15.63
2019-01-15T03:26:23.180Z,17.03
2019-01-15T03:31:27.753Z,16.27
2019-01-15T03:36:32.352Z,14.13
2019-01-15T03:41:36.942Z,9.30
2019-01-15T03:46:42.211Z,12.83
2019-01-15T03:51:46.783Z,16.53
2019-01-15T03:56:51.398Z,11.63
2019-01-15T04:01:55.987Z,16.50
2019-01-15T04:07:00.561Z,19.83
2019-01-15T04:12:05.153Z,15.20
2019-01-15T04:17:09.753Z,15.47
2019-01-15T04:22:14.290Z,24.03
2019-01-15T04:27:18.786Z,9.13
2019-01-15T04:32:23.377Z,12.87
2019-01-15T04:37:27.922Z,21.90
2019-01-15T04:42:32.498Z,8.43
2019-01-15T04:47:37.089Z,14.03
2019-01-15T04:52:42.990Z,15.07
2019-01-15T04:57:47.563Z,20.30
2019-01-15T05:02:52.500Z,10.30
2019-01-15T05:07:57.091Z,8.70
2019-01-15T05:13:01.654Z,15.17
2019-01-15T05:18:06.250Z,15.03
2019-01-15T05:23:10.822Z,24.53
2019-01-15T05:28:15.385Z,9.80
2019-01-15T05:33:19.891Z,16.50
2019-01-15T05:38:24.505Z,14.00
2019-01-15T05:43:35.513Z,13.23
2019-01-15T05:48:37.090Z,11.77
2019-01-15T05:53:41.637Z,13.67
2019-01-15T05:58:46.244Z,11.23
2019-01-15T06:03:50.786Z,16.00
2019-01-15T06:08:55.272Z,21.00
2019-01-15T06:13:59.781Z,12.83
2019-01-15T06:19:04.442Z,6.03
2019-01-15T06:24:08.954Z,10.47
2019-01-15T06:29:13.701Z,16.17
2019-01-15T06:34:18.230Z,14.00
2019-01-15T06:39:22.811Z,11.67
2019-01-15T06:44:27.394Z,12.23
2019-01-15T06:49:32.080Z,16.73
2019-01-15T06:54:36.681Z,8.47
2019-01-15T06:59:41.269Z,15.07
2019-01-15T07:04:45.782Z,7.77
2019-01-15T07:09:50.382Z,11.03
2019-01-15T07:14:54.975Z,12.67
2019-01-15T07:19:59.569Z,16.80
2019-01-15T07:25:04.782Z,14.93
2019-01-15T07:30:13.370Z,8.07
2019-01-15T07:35:17.956Z,11.93
2019-01-15T07:40:22.541Z,7.50
2019-01-15T07:45:27.049Z,11.43
2019-01-15T07:50:31.608Z,11.80
2019-01-15T07:55:36.453Z,16.23
2019-01-15T08:00:41.237Z,15.63
2019-01-15T08:05:45.788Z,11.90
2019-01-15T08:10:56.803Z,11.57
2019-01-15T08:15:56.607Z,21.73
2019-01-15T08:21:01.206Z,9.18
2019-01-15T08:26:05.789Z,13.10
2019-01-15T08:31:10.365Z,16.80
2019-01-15T08:36:14.903Z,9.23
2019-01-15T08:41:19.423Z,11.77
2019-01-15T08:46:23.933Z,10.13
2019-01-15T08:51:28.664Z,10.20
2019-01-15T08:56:33.276Z,7.67
2019-01-15T09:01:38.147Z,9.20
2019-01-15T09:06:42.685Z,10.03
2019-01-15T09:11:47.264Z,6.27
2019-01-15T09:16:51.785Z,8.67
2019-01-15T09:21:56.395Z,4.80
2019-01-15T09:27:00.973Z,8.33
2019-01-15T09:32:05.688Z,12.47
2019-01-15T09:37:11.992Z,7.63
2019-01-15T09:42:18.335Z,13.00
2019-01-15T09:47:23.078Z,5.47
2019-01-15T09:52:27.653Z,7.97
2019-01-15T09:57:32.265Z,5.70
2019-01-15T10:02:36.767Z,13.90
2019-01-15T10:07:41.260Z,6.40
2019-01-15T10:12:45.922Z,9.90
2019-01-15T10:17:50.511Z,12.77
2019-01-15T10:22:55.127Z,8.60
2019-01-15T10:27:59.751Z,9.33
2019-01-15T10:33:26.709Z,9.93
2019-01-15T10:38:32.526Z,7.20
2019-01-15T10:43:37.119Z,11.20
2019-01-15T10:48:41.732Z,8.30
2019-01-15T10:53:46.346Z,5.70
2019-01-15T10:58:51.062Z,9.30
2019-01-15T11:03:55.694Z,9.50
2019-01-15T11:09:00.272Z,4.90
2019-01-15T11:14:04.918Z,8.17
2019-01-15T11:19:09.543Z,10.83
2019-01-15T11:24:14.194Z,8.57
2019-01-15T11:29:18.809Z,9.60
2019-01-15T11:34:26.230Z,9.67
2019-01-15T11:39:31.037Z,8.37
2019-01-15T11:44:35.730Z,4.63
2019-01-15T11:49:40.357Z,5.90
2019-01-15T11:54:44.936Z,8.23
2019-01-15T11:59:49.513Z,4.43
2019-01-15T12:05:28.185Z,14.93
2019-01-15T12:10:51.697Z,3.27
2019-01-15T12:16:20.909Z,4.77
2019-01-15T12:21:56.214Z,3.60
2019-01-15T12:27:28.747Z,2.90
2019-01-15T12:32:45.784Z,5.40
2019-01-15T12:38:07.550Z,4.80
2019-01-15T12:43:29.318Z,4.60
2019-01-15T12:48:51.461Z,5.63
2019-01-15T12:54:14.915Z,3.17
2019-01-15T12:59:37.084Z,8.53
2019-01-15T13:05:15.713Z,3.10
2019-01-15T13:10:39.223Z,3.10
2019-01-15T13:15:57.061Z,2.87
2019-01-15T13:21:18.910Z,2.33
2019-01-15T13:26:36.192Z,2.10
2019-01-15T13:32:05.663Z,1.53
2019-01-15T13:37:33.601Z,3.13
2019-01-15T13:42:55.729Z,4.73
2019-01-15T13:48:25.030Z,4.57
2019-01-15T13:53:57.604Z,2.53
2019-01-15T13:59:21.169Z,2.20
2019-01-15T14:04:43.343Z,2.97
2019-01-15T14:10:06.836Z,5.10
2019-01-15T14:15:28.693Z,9.13
2019-01-15T14:20:52.909Z,6.47
2019-01-15T14:26:14.853Z,5.30
2019-01-15T14:31:33.633Z,3.50
2019-01-15T14:36:52.833Z,5.57
2019-01-15T14:42:19.320Z,4.40
2019-01-15T14:47:41.427Z,3.87
2019-01-15T14:53:10.807Z,4.57
2019-01-15T14:58:27.028Z,5.30
2019-01-15T15:03:59.537Z,2.43
2019-01-15T15:09:24.565Z,5.87
2019-01-15T15:14:50.737Z,4.83
2019-01-15T15:20:17.024Z,4.43
2019-01-15T15:25:39.070Z,4.73
2019-01-15T15:31:17.507Z,4.07
2019-01-15T15:36:33.725Z,4.63
2019-01-15T15:41:55.627Z,5.57
2019-01-15T15:47:26.946Z,3.63
2019-01-15T15:52:53.480Z,3.93
2019-01-15T15:58:11.825Z,3.80
2019-01-15T16:03:53.251Z,4.40
2019-01-15T16:09:19.758Z,4.73
2019-01-15T16:14:43.237Z,4.00
2019-01-15T16:20:12.484Z,9.53
2019-01-15T16:25:34.637Z,7.27
2019-01-15T16:30:58.121Z,8.27
2019-01-15T16:36:21.554Z,11.78
2019-01-15T16:41:43.408Z,6.65
2019-01-15T16:47:05.286Z,5.63
2019-01-15T16:52:30.182Z,5.97
2019-01-15T16:58:02.511Z,3.55
2019-01-15T17:03:24.669Z,4.07
2019-01-15T17:08:46.609Z,2.77
2019-01-15T17:14:11.494Z,5.00
2019-01-15T17:19:29.873Z,8.08
2019-01-15T17:25:08.516Z,3.30
2019-01-15T17:30:31.613Z,3.33
2019-01-15T17:35:51.720Z,6.00
2019-01-15T17:41:07.837Z,6.50
2019-01-15T17:46:41.094Z,4.97
2019-01-15T17:52:08.681Z,7.00
2019-01-15T17:57:29.679Z,5.83
2019-01-15T18:02:56.240Z,5.30
2019-01-15T18:08:22.709Z,3.90
2019-01-15T18:13:55.416Z,6.17
2019-01-15T18:19:32.774Z,5.53
2019-01-15T18:24:54.074Z,4.77
2019-01-15T18:30:16.163Z,4.10
2019-01-15T18:35:32.468Z,4.33
2019-01-15T18:41:05.139Z,4.30
2019-01-15T18:46:26.662Z,5.73
2019-01-15T18:51:59.297Z,4.83
2019-01-15T18:57:31.719Z,8.70
2019-01-15T19:02:57.957Z,4.87
2019-01-15T19:08:17.520Z,6.10
2019-01-15T19:13:43.781Z,6.70
2019-01-15T19:19:01.991Z,5.45
2019-01-15T19:24:25.462Z,4.50
2019-01-15T19:29:51.652Z,2.53
2019-01-15T19:35:23.914Z,5.80
2019-01-15T19:40:44.768Z,1.97
2019-01-15T19:46:23.349Z,4.50
2019-01-15T19:51:49.713Z,5.93
2019-01-15T19:57:04.405Z,4.40
2019-01-15T20:02:28.014Z,5.07
2019-01-15T20:08:09.449Z,8.40
2019-01-15T20:13:24.940Z,5.80
2019-01-15T20:18:51.174Z,2.63
2019-01-15T20:24:20.662Z,3.37
2019-01-15T20:29:44.134Z,2.70
2019-01-15T20:35:10.353Z,3.80
2019-01-15T20:40:32.157Z,4.22
2019-01-15T20:46:04.523Z,2.63
2019-01-15T20:51:26.457Z,3.97
2019-01-15T20:56:48.525Z,3.27
2019-01-15T21:02:24.122Z,4.42
2019-01-15T21:07:41.745Z,6.25
2019-01-15T21:13:03.597Z,5.00
2019-01-15T21:18:32.853Z,4.40
2019-01-15T21:23:59.052Z,6.10
2019-01-15T21:29:28.628Z,6.00
2019-01-15T21:34:57.899Z,4.87
2019-01-15T21:40:31.001Z,2.60
2019-01-15T21:45:44.444Z,2.70
2019-01-15T21:51:04.850Z,4.63
2019-01-15T21:56:20.828Z,3.87
2019-01-15T22:01:43.031Z,3.10
2019-01-15T22:07:24.703Z,5.87
2019-01-15T22:12:54.855Z,2.80
2019-01-15T22:18:18.410Z,4.80
2019-01-15T22:23:50.672Z,2.33
2019-01-15T22:29:29.123Z,7.23
2019-01-15T22:34:50.947Z,6.40
2019-01-15T22:40:13.078Z,6.97
2019-01-15T22:45:36.144Z,6.57
2019-01-15T22:50:58.071Z,6.67
2019-01-15T22:56:36.515Z,3.50
2019-01-15T23:01:51.610Z,3.27
2019-01-15T23:07:13.657Z,2.53
2019-01-15T23:12:39.520Z,5.70
2019-01-15T23:18:08.820Z,6.20
2019-01-15T23:23:35.405Z,6.70
2019-01-15T23:28:57.674Z,6.33
2019-01-15T23:34:28.628Z,7.73
2019-01-15T23:39:54.915Z,5.73
2019-01-15T23:45:21.058Z,3.93
2019-01-15T23:50:47.855Z,6.13
2019-01-15T23:56:20.596Z,4.20
